Time;durP1;ratioP1;P1;durP2;ratioP2;P2;SDS_P1;SDS_P2;PMS_P1;PMS_P2;Temp;Humidity;BMP_temperature;BMP_pressure;BME280_temperature;BME280_humidity;BME280_pressure;Samples;Min_cycle;Max_cycle;Signal;HPM_P1;HPM_P2
2023/11/17 00:00:11;;;;;;;7.30;4.07;;;5.70;99.90;;;;;;493882;241;27477;-72
2023/11/17 00:02:09;;;;;;;7.45;4.00;;;5.70;99.90;;;;;;493714;241;27505;-72
2023/11/17 00:04:11;;;;;;;4.97;3.83;;;5.70;99.90;;;;;;494040;241;27774;-74
2023/11/17 00:06:11;;;;;;;7.93;3.95;;;5.70;99.90;;;;;;493914;241;27465;-72
2023/11/17 00:08:13;;;;;;;4.18;3.75;;;5.70;99.90;;;;;;493990;241;27644;-72
2023/11/17 00:10:14;;;;;;;7.80;4.45;;;5.80;99.90;;;;;;494004;241;27489;-71
2023/11/17 00:12:15;;;;;;;4.25;3.58;;;5.80;99.90;;;;;;494035;241;27635;-72
2023/11/17 00:14:17;;;;;;;6.90;4.70;;;5.80;99.90;;;;;;494054;241;27999;-73
2023/11/17 00:16:18;;;;;;;6.60;4.10;;;5.80;99.90;;;;;;494025;241;28006;-72
2023/11/17 00:18:19;;;;;;;5.20;3.90;;;5.80;99.90;;;;;;493976;241;27592;-71
2023/11/17 00:20:20;;;;;;;4.30;3.80;;;5.80;99.90;;;;;;494113;239;27600;-72
2023/11/17 00:22:21;;;;;;;4.18;3.50;;;5.80;99.90;;;;;;493987;237;27462;-72
2023/11/17 00:24:23;;;;;;;4.72;4.15;;;5.80;99.90;;;;;;493972;241;27505;-72
2023/11/17 00:26:25;;;;;;;9.98;4.75;;;5.80;99.90;;;;;;494127;241;27470;-71
2023/11/17 00:28:25;;;;;;;5.37;4.10;;;5.70;99.90;;;;;;494081;240;27516;-72
2023/11/17 00:30:26;;;;;;;6.53;4.22;;;5.80;99.90;;;;;;494028;241;28000;-73
2023/11/17 00:32:28;;;;;;;4.47;3.90;;;5.80;99.90;;;;;;494024;241;28018;-72
2023/11/17 00:34:29;;;;;;;5.25;3.92;;;5.80;99.90;;;;;;494064;241;27501;-72
2023/11/17 00:36:31;;;;;;;7.70;5.10;;;5.80;99.90;;;;;;494016;241;27466;-72
2023/11/17 00:38:32;;;;;;;5.82;4.10;;;5.80;99.90;;;;;;494091;241;27469;-72
2023/11/17 00:40:33;;;;;;;6.57;3.90;;;5.80;99.90;;;;;;494085;241;27521;-72
2023/11/17 00:42:34;;;;;;;4.82;3.90;;;5.80;99.90;;;;;;494094;241;27543;-71
2023/11/17 00:44:35;;;;;;;5.97;4.03;;;5.80;99.90;;;;;;494067;241;27536;-72
2023/11/17 00:46:37;;;;;;;4.10;3.67;;;5.80;99.90;;;;;;494097;241;28168;-72
2023/11/17 00:48:38;;;;;;;4.30;3.58;;;5.80;99.90;;;;;;494153;241;27925;-72
2023/11/17 00:50:40;;;;;;;4.95;3.67;;;5.90;99.90;;;;;;494011;241;27513;-73
2023/11/17 00:52:41;;;;;;;6.65;3.62;;;5.90;99.90;;;;;;494058;241;27473;-72
2023/11/17 00:54:47;;;;;;;2.92;2.72;;;5.80;99.90;;;;;;493976;241;27512;-72
2023/11/17 00:56:46;;;;;;;4.25;3.08;;;5.90;99.90;;;;;;493848;241;27970;-72
2023/11/17 00:58:47;;;;;;;5.05;3.83;;;5.90;99.90;;;;;;494102;241;27980;-72
2023/11/17 01:00:48;;;;;;;5.75;3.30;;;5.90;99.90;;;;;;494015;241;27473;-73
2023/11/17 01:02:49;;;;;;;6.78;4.10;;;5.90;99.90;;;;;;494016;241;27502;-72
2023/11/17 01:04:51;;;;;;;7.82;4.28;;;5.90;99.90;;;;;;494009;241;27620;-71
2023/11/17 01:06:53;;;;;;;6.00;4.10;;;5.90;99.90;;;;;;493983;241;27488;-72
2023/11/17 01:08:53;;;;;;;7.10;3.70;;;5.90;99.90;;;;;;493908;241;27531;-73
2023/11/17 01:10:55;;;;;;;7.18;4.30;;;5.90;99.90;;;;;;493934;241;27922;-72
2023/11/17 01:12:56;;;;;;;5.72;4.85;;;5.90;99.90;;;;;;493919;237;28021;-72
2023/11/17 01:14:57;;;;;;;4.15;3.42;;;5.80;99.90;;;;;;493965;241;27517;-73
2023/11/17 01:16:58;;;;;;;4.72;4.00;;;5.90;99.90;;;;;;493963;241;27478;-72
2023/11/17 01:19:00;;;;;;;8.85;5.25;;;5.90;99.90;;;;;;493977;241;27524;-72
2023/11/17 01:21:01;;;;;;;5.40;3.60;;;5.90;99.90;;;;;;494031;241;27564;-72
2023/11/17 01:23:02;;;;;;;5.65;4.43;;;5.90;99.90;;;;;;494127;241;27493;-72
2023/11/17 01:25:03;;;;;;;8.40;4.20;;;5.90;99.90;;;;;;494098;241;27979;-73
2023/11/17 01:27:05;;;;;;;9.18;5.40;;;5.80;99.90;;;;;;493990;241;28083;-72
2023/11/17 01:29:06;;;;;;;5.05;4.05;;;5.90;99.90;;;;;;494018;241;27534;-71
2023/11/17 01:31:08;;;;;;;6.87;4.50;;;5.80;99.90;;;;;;494034;241;27513;-72
2023/11/17 01:33:09;;;;;;;5.03;4.18;;;5.80;99.90;;;;;;494144;241;27462;-72
2023/11/17 01:35:10;;;;;;;4.12;3.72;;;5.80;99.90;;;;;;494022;241;27506;-72
2023/11/17 01:37:11;;;;;;;5.18;3.58;;;5.80;99.90;;;;;;494018;241;27458;-72
2023/11/17 01:39:13;;;;;;;4.95;3.55;;;5.80;99.90;;;;;;494101;241;28008;-72
2023/11/17 01:41:13;;;;;;;3.72;2.95;;;5.80;99.90;;;;;;494091;241;28099;-73
2023/11/17 01:43:16;;;;;;;4.50;3.15;;;5.80;99.90;;;;;;494091;241;27473;-72
2023/11/17 01:45:16;;;;;;;3.97;3.58;;;5.80;99.90;;;;;;494005;241;27518;-72
2023/11/17 01:47:20;;;;;;;3.90;3.25;;;5.80;99.90;;;;;;494131;241;27460;-72
2023/11/17 01:49:18;;;;;;;3.35;3.05;;;5.80;99.90;;;;;;493839;241;27627;-72
2023/11/17 01:51:20;;;;;;;8.10;3.90;;;5.80;99.90;;;;;;494105;241;27518;-74
2023/11/17 01:53:21;;;;;;;3.97;3.62;;;5.90;99.90;;;;;;494088;237;27556;-72
2023/11/17 01:55:24;;;;;;;6.43;4.15;;;5.80;99.90;;;;;;494106;241;27976;-73
2023/11/17 01:57:23;;;;;;;4.37;3.97;;;5.90;99.90;;;;;;493902;241;28151;-72
2023/11/17 01:59:25;;;;;;;3.50;3.20;;;5.80;99.90;;;;;;494143;241;27462;-72
2023/11/17 02:01:27;;;;;;;4.65;3.55;;;5.90;99.90;;;;;;493952;241;27636;-72
2023/11/17 02:03:27;;;;;;;5.50;4.37;;;5.80;99.90;;;;;;494086;241;27536;-71
2023/11/17 02:05:28;;;;;;;4.65;3.70;;;5.80;99.90;;;;;;494106;241;27505;-72
2023/11/17 02:07:30;;;;;;;5.90;3.20;;;5.80;99.90;;;;;;493994;241;27663;-73
2023/11/17 02:09:31;;;;;;;5.00;3.70;;;5.80;99.90;;;;;;494141;241;28040;-73
2023/11/17 02:11:35;;;;;;;6.10;4.07;;;5.80;99.90;;;;;;494144;241;28001;-72
2023/11/17 02:13:36;;;;;;;5.40;3.90;;;5.80;99.90;;;;;;493838;241;27469;-72
2023/11/17 02:15:35;;;;;;;6.53;4.10;;;5.80;99.90;;;;;;493865;241;27518;-72
2023/11/17 02:17:37;;;;;;;6.40;3.40;;;5.80;99.90;;;;;;494017;241;27568;-73
2023/11/17 02:19:37;;;;;;;3.72;3.03;;;5.80;99.90;;;;;;494012;241;27465;-72
2023/11/17 02:21:39;;;;;;;4.57;3.17;;;5.80;99.90;;;;;;494000;241;27513;-72
2023/11/17 02:23:42;;;;;;;3.70;3.20;;;5.70;99.90;;;;;;494037;241;28141;-72
2023/11/17 02:25:44;;;;;;;5.95;2.80;;;5.70;99.90;;;;;;493896;241;28142;-72
2023/11/17 02:27:45;;;;;;;4.50;3.33;;;5.80;99.90;;;;;;493901;241;27502;-73
2023/11/17 02:29:44;;;;;;;8.10;3.50;;;5.70;99.90;;;;;;493896;241;27457;-72
2023/11/17 02:31:45;;;;;;;4.37;3.40;;;5.70;99.90;;;;;;494026;241;27508;-72
2023/11/17 02:33:49;;;;;;;5.93;3.40;;;5.70;99.90;;;;;;494137;241;27534;-74
2023/11/17 02:35:49;;;;;;;4.47;3.78;;;5.70;99.90;;;;;;493983;241;27492;-72
2023/11/17 02:37:50;;;;;;;5.50;2.87;;;5.70;99.90;;;;;;493933;241;27978;-72
2023/11/17 02:39:50;;;;;;;3.37;3.05;;;5.70;99.90;;;;;;493962;241;27913;-72
2023/11/17 02:41:57;;;;;;;3.42;2.90;;;5.70;99.90;;;;;;494054;241;27489;-72
2023/11/17 02:43:58;;;;;;;3.95;3.25;;;5.80;99.90;;;;;;494077;241;27999;-73
2023/11/17 02:46:01;;;;;;;2.85;2.45;;;5.70;99.90;;;;;;494154;241;28038;-72
2023/11/17 02:48:02;;;;;;;3.53;2.95;;;5.80;99.90;;;;;;493941;241;27544;-72
2023/11/17 02:50:09;;;;;;;4.37;3.50;;;5.80;99.90;;;;;;493940;241;27548;-72
2023/11/17 02:52:04;;;;;;;4.18;3.20;;;5.80;99.90;;;;;;493472;241;27460;-73
2023/11/17 02:54:08;;;;;;;3.50;2.80;;;5.70;99.90;;;;;;493978;241;27514;-72
2023/11/17 02:56:06;;;;;;;3.22;3.03;;;5.70;99.90;;;;;;493837;241;27538;-72
2023/11/17 02:58:07;;;;;;;4.10;3.40;;;5.70;99.90;;;;;;493986;241;27620;-73
2023/11/17 03:00:08;;;;;;;2.83;2.60;;;5.70;99.90;;;;;;494074;241;28046;-72
2023/11/17 03:02:15;;;;;;;6.80;2.80;;;5.70;99.90;;;;;;494092;241;27909;-72
2023/11/17 03:04:17;;;;;;;4.00;2.97;;;5.70;99.90;;;;;;493693;241;27502;-72
2023/11/17 03:06:18;;;;;;;3.47;3.17;;;5.70;99.90;;;;;;494022;237;27941;-72
2023/11/17 03:08:19;;;;;;;4.55;3.00;;;5.70;99.90;;;;;;494028;241;28063;-73
2023/11/17 03:10:20;;;;;;;3.80;2.50;;;5.70;99.90;;;;;;494134;241;28042;-74
2023/11/17 03:12:22;;;;;;;3.28;2.97;;;5.70;99.90;;;;;;494043;241;27463;-72
2023/11/17 03:14:24;;;;;;;3.03;2.72;;;5.80;99.90;;;;;;493975;241;27500;-72
2023/11/17 03:16:24;;;;;;;3.00;2.70;;;5.80;99.90;;;;;;494048;241;27471;-72
2023/11/17 03:18:30;;;;;;;3.92;2.90;;;5.80;99.90;;;;;;494050;241;27510;-72
2023/11/17 03:20:31;;;;;;;2.78;2.58;;;5.80;99.90;;;;;;493845;241;27580;-71
2023/11/17 03:22:32;;;;;;;3.20;2.90;;;5.70;99.90;;;;;;494026;241;27610;-74
2023/11/17 03:24:34;;;;;;;4.00;3.20;;;5.80;99.90;;;;;;494064;241;27472;-71
2023/11/17 03:26:33;;;;;;;3.53;2.83;;;5.70;99.90;;;;;;493942;241;27518;-72
2023/11/17 03:28:35;;;;;;;5.43;3.50;;;5.80;99.90;;;;;;494019;241;28013;-73
2023/11/17 03:30:36;;;;;;;6.07;3.85;;;5.80;99.90;;;;;;493988;241;27913;-72
2023/11/17 03:32:37;;;;;;;5.25;3.80;;;5.80;99.90;;;;;;494008;241;27592;-73
2023/11/17 03:34:40;;;;;;;6.37;3.20;;;5.70;99.90;;;;;;494006;241;27464;-72
2023/11/17 03:36:40;;;;;;;3.35;3.05;;;5.80;99.90;;;;;;493857;241;27506;-73
2023/11/17 03:38:41;;;;;;;6.43;3.65;;;5.70;99.90;;;;;;494010;241;27588;-74
2023/11/17 03:40:42;;;;;;;10.27;4.05;;;5.70;99.90;;;;;;494071;241;27552;-72
2023/11/17 03:42:43;;;;;;;3.83;3.50;;;5.80;99.90;;;;;;494055;241;27970;-73
2023/11/17 03:44:45;;;;;;;6.60;3.95;;;5.70;99.90;;;;;;494026;241;28119;-72
2023/11/17 03:46:46;;;;;;;4.28;3.53;;;5.80;99.90;;;;;;494164;241;27500;-72
2023/11/17 03:48:49;;;;;;;6.47;3.72;;;5.70;99.90;;;;;;494105;241;27521;-73
2023/11/17 03:50:49;;;;;;;6.05;3.53;;;5.70;99.90;;;;;;493874;241;27473;-72
2023/11/17 03:52:51;;;;;;;8.88;4.57;;;5.70;99.90;;;;;;494019;241;27504;-72
2023/11/17 03:54:51;;;;;;;3.87;3.45;;;5.70;99.90;;;;;;493875;241;27455;-72
2023/11/17 03:56:52;;;;;;;3.85;3.50;;;5.70;99.90;;;;;;494022;241;27950;-71
2023/11/17 03:58:53;;;;;;;4.43;3.55;;;5.80;99.90;;;;;;494056;241;27962;-73
2023/11/17 04:00:55;;;;;;;7.03;3.87;;;5.80;99.90;;;;;;494028;241;28090;-72
2023/11/17 04:02:57;;;;;;;6.00;4.10;;;5.80;99.90;;;;;;493996;241;27522;-72
2023/11/17 04:04:57;;;;;;;4.30;3.90;;;5.80;99.90;;;;;;494010;239;27510;-72
2023/11/17 04:06:58;;;;;;;5.43;4.32;;;5.80;99.90;;;;;;494027;241;27555;-72
2023/11/17 04:09:00;;;;;;;8.38;5.45;;;5.80;99.90;;;;;;494024;241;27506;-72
2023/11/17 04:11:01;;;;;;;4.68;4.07;;;5.80;99.90;;;;;;494030;241;27545;-72
2023/11/17 04:13:02;;;;;;;5.35;4.65;;;5.80;99.90;;;;;;494044;241;27980;-73
2023/11/17 04:15:04;;;;;;;6.12;5.10;;;5.80;99.90;;;;;;494037;237;28083;-72
2023/11/17 04:17:05;;;;;;;6.72;4.93;;;5.80;99.90;;;;;;494027;241;27508;-73
2023/11/17 04:19:06;;;;;;;8.82;4.68;;;5.80;99.90;;;;;;493789;241;27493;-72
2023/11/17 04:21:07;;;;;;;5.57;4.60;;;5.80;99.90;;;;;;494145;241;27500;-72
2023/11/17 04:23:08;;;;;;;7.22;4.80;;;5.80;99.90;;;;;;494114;241;27485;-73
2023/11/17 04:25:10;;;;;;;7.00;5.20;;;5.80;99.90;;;;;;494105;241;27524;-72
2023/11/17 04:27:11;;;;;;;4.28;3.85;;;5.80;99.90;;;;;;494123;237;28021;-72
2023/11/17 04:29:12;;;;;;;4.90;4.40;;;5.70;99.90;;;;;;494017;241;28004;-72
2023/11/17 04:31:13;;;;;;;8.40;4.72;;;5.80;99.90;;;;;;494023;241;27621;-72
2023/11/17 04:33:15;;;;;;;7.68;4.43;;;5.80;99.90;;;;;;493998;241;27566;-72
2023/11/17 04:35:16;;;;;;;5.47;4.60;;;5.70;99.90;;;;;;494006;241;27521;-72
2023/11/17 04:37:19;;;;;;;6.37;5.18;;;5.80;99.90;;;;;;494007;241;27505;-72
2023/11/17 04:39:23;;;;;;;7.40;5.15;;;5.70;99.90;;;;;;493996;241;27496;-72
2023/11/17 04:41:20;;;;;;;10.73;6.35;;;5.70;99.90;;;;;;493713;241;28030;-73
2023/11/17 04:43:21;;;;;;;5.87;4.87;;;5.80;99.90;;;;;;493985;241;28047;-72
2023/11/17 04:45:25;;;;;;;9.38;4.75;;;5.80;99.90;;;;;;494004;241;27493;-72
2023/11/17 04:47:24;;;;;;;6.87;4.78;;;5.80;99.90;;;;;;493798;241;27451;-72
2023/11/17 04:49:25;;;;;;;7.82;5.40;;;5.80;99.90;;;;;;493928;241;27474;-72
2023/11/17 04:51:26;;;;;;;9.77;5.97;;;5.80;99.90;;;;;;494019;241;27513;-73
2023/11/17 04:53:27;;;;;;;12.37;5.47;;;5.80;99.90;;;;;;494043;241;27501;-72
2023/11/17 04:55:29;;;;;;;11.30;5.15;;;5.80;99.90;;;;;;493821;241;28071;-73
2023/11/17 04:57:30;;;;;;;6.50;5.15;;;5.80;99.90;;;;;;494099;241;28064;-72
2023/11/17 04:59:31;;;;;;;5.60;4.90;;;5.80;99.90;;;;;;494166;241;27457;-72
2023/11/17 05:01:34;;;;;;;7.37;5.68;;;5.80;99.90;;;;;;494067;241;27591;-73
2023/11/17 05:03:35;;;;;;;8.75;6.45;;;5.80;99.90;;;;;;493915;241;27540;-72
2023/11/17 05:05:35;;;;;;;8.20;6.10;;;5.80;99.90;;;;;;493899;241;27612;-72
2023/11/17 05:07:37;;;;;;;7.68;5.20;;;5.80;99.90;;;;;;494113;241;27570;-74
2023/11/17 05:09:37;;;;;;;7.50;5.75;;;5.80;99.90;;;;;;493994;241;27934;-72
2023/11/17 05:11:39;;;;;;;9.05;5.60;;;5.70;99.90;;;;;;494006;241;27977;-73
2023/11/17 05:13:40;;;;;;;8.98;6.32;;;5.70;99.90;;;;;;494023;241;27468;-72
2023/11/17 05:15:41;;;;;;;8.48;6.53;;;5.70;99.90;;;;;;494078;241;27562;-73
2023/11/17 05:17:48;;;;;;;9.70;6.57;;;5.70;99.90;;;;;;494026;241;27539;-74
2023/11/17 05:19:47;;;;;;;8.40;5.75;;;5.70;99.90;;;;;;493827;237;28055;-73
2023/11/17 05:21:48;;;;;;;8.40;5.87;;;5.70;99.90;;;;;;494092;241;28084;-73
2023/11/17 05:23:49;;;;;;;10.02;5.62;;;5.70;99.90;;;;;;494103;241;27520;-72
2023/11/17 05:25:50;;;;;;;10.90;6.57;;;5.70;99.90;;;;;;494141;241;27514;-73
2023/11/17 05:27:52;;;;;;;8.55;6.25;;;5.70;99.90;;;;;;494084;241;27605;-73
2023/11/17 05:29:53;;;;;;;11.77;6.65;;;5.70;99.90;;;;;;494116;241;27516;-72
2023/11/17 05:31:54;;;;;;;11.18;6.30;;;5.70;99.90;;;;;;494129;241;27517;-72
2023/11/17 05:33:55;;;;;;;9.60;6.53;;;5.70;99.90;;;;;;494000;241;27953;-73
2023/11/17 05:35:57;;;;;;;8.40;5.85;;;5.70;99.90;;;;;;494045;241;28078;-74
2023/11/17 05:37:58;;;;;;;9.32;6.55;;;5.70;99.90;;;;;;493980;241;27489;-72
2023/11/17 05:39:59;;;;;;;9.70;6.95;;;5.70;99.90;;;;;;494014;241;27521;-72
2023/11/17 05:42:03;;;;;;;10.48;6.35;;;5.60;99.90;;;;;;494029;241;27552;-72
2023/11/17 05:44:03;;;;;;;10.40;6.40;;;5.60;99.90;;;;;;493855;241;27470;-72
2023/11/17 05:46:03;;;;;;;7.95;5.93;;;5.70;99.90;;;;;;493988;241;27529;-73
2023/11/17 05:48:05;;;;;;;11.18;6.80;;;5.70;99.90;;;;;;494104;241;27912;-72
2023/11/17 05:50:06;;;;;;;7.87;6.62;;;5.70;99.90;;;;;;494019;241;27977;-72
2023/11/17 05:52:07;;;;;;;11.90;7.07;;;5.60;99.90;;;;;;494093;241;27630;-73
2023/11/17 05:54:08;;;;;;;12.93;8.30;;;5.60;99.90;;;;;;494004;241;27498;-72
2023/11/17 05:56:11;;;;;;;8.82;6.40;;;5.60;99.90;;;;;;494012;241;27545;-72
2023/11/17 05:58:12;;;;;;;9.13;7.05;;;5.60;99.90;;;;;;493893;241;27466;-72
2023/11/17 06:00:13;;;;;;;9.75;6.90;;;5.70;99.90;;;;;;494028;241;27579;-72
2023/11/17 06:02:16;;;;;;;11.50;7.45;;;5.70;99.90;;;;;;493902;237;27965;-73
2023/11/17 06:04:14;;;;;;;9.65;6.35;;;5.70;99.90;;;;;;493846;241;27945;-73
2023/11/17 06:06:15;;;;;;;7.97;6.57;;;5.70;99.90;;;;;;494096;241;27605;-73
2023/11/17 06:08:17;;;;;;;14.00;7.82;;;5.60;99.90;;;;;;494147;241;27505;-72
2023/11/17 06:10:19;;;;;;;9.93;7.10;;;5.70;99.90;;;;;;494155;241;27497;-72
2023/11/17 06:12:19;;;;;;;10.52;7.55;;;5.60;99.90;;;;;;493848;241;27539;-73
2023/11/17 06:14:21;;;;;;;10.95;7.95;;;5.60;99.90;;;;;;493945;241;27536;-72
2023/11/17 06:16:23;;;;;;;11.85;8.32;;;5.60;99.90;;;;;;493962;241;27964;-72
2023/11/17 06:18:23;;;;;;;9.05;7.28;;;5.60;99.90;;;;;;493994;237;27515;-73
2023/11/17 06:20:25;;;;;;;14.85;8.88;;;5.60;99.90;;;;;;494130;241;27474;-72
2023/11/17 06:22:26;;;;;;;17.25;9.45;;;5.60;99.90;;;;;;493968;241;27527;-73
2023/11/17 06:24:27;;;;;;;11.73;7.45;;;5.60;99.90;;;;;;493888;241;27469;-72
2023/11/17 06:26:28;;;;;;;14.02;7.82;;;5.60;99.90;;;;;;493967;241;27589;-72
2023/11/17 06:28:29;;;;;;;9.90;7.82;;;5.60;99.90;;;;;;493995;241;27978;-73
2023/11/17 06:30:31;;;;;;;16.70;8.10;;;5.60;99.90;;;;;;494023;241;27928;-72
2023/11/17 06:32:32;;;;;;;12.02;7.43;;;5.60;99.90;;;;;;494011;241;27494;-72
2023/11/17 06:34:33;;;;;;;11.68;7.72;;;5.60;99.90;;;;;;494005;241;27504;-74
2023/11/17 06:36:37;;;;;;;12.63;8.40;;;5.60;99.90;;;;;;494015;241;27473;-72
2023/11/17 06:38:36;;;;;;;10.90;7.60;;;5.60;99.90;;;;;;493829;241;27581;-73
2023/11/17 06:40:37;;;;;;;14.15;7.75;;;5.60;99.90;;;;;;494017;241;27898;-72
2023/11/17 06:42:40;;;;;;;13.15;8.30;;;5.60;99.90;;;;;;493990;241;27989;-72
2023/11/17 06:44:40;;;;;;;13.60;7.55;;;5.60;99.90;;;;;;493937;241;27584;-72
2023/11/17 06:46:41;;;;;;;12.90;8.25;;;5.60;99.90;;;;;;494006;241;27452;-72
2023/11/17 06:48:42;;;;;;;14.93;8.98;;;5.60;99.90;;;;;;494015;241;27522;-72
2023/11/17 06:50:43;;;;;;;11.18;7.97;;;5.60;99.90;;;;;;494045;241;27461;-72
2023/11/17 06:52:45;;;;;;;12.82;7.32;;;5.60;99.90;;;;;;494076;241;27901;-72
2023/11/17 06:54:46;;;;;;;11.32;7.87;;;5.60;99.90;;;;;;494060;241;27988;-72
2023/11/17 06:56:47;;;;;;;13.45;9.18;;;5.70;99.90;;;;;;494041;241;27463;-72
2023/11/17 06:58:48;;;;;;;11.50;7.65;;;5.60;99.90;;;;;;494156;241;27513;-72
2023/11/17 07:00:50;;;;;;;12.52;7.60;;;5.60;99.90;;;;;;494067;241;27839;-74
2023/11/17 07:02:51;;;;;;;11.12;8.23;;;5.60;99.90;;;;;;494023;241;27466;-72
2023/11/17 07:04:53;;;;;;;13.68;8.48;;;5.70;99.90;;;;;;494055;241;27993;-73
2023/11/17 07:06:53;;;;;;;10.32;7.57;;;5.70;99.90;;;;;;494198;241;27933;-72
2023/11/17 07:08:55;;;;;;;16.02;8.20;;;5.70;99.90;;;;;;494169;241;27489;-72
2023/11/17 07:10:56;;;;;;;11.23;7.45;;;5.70;99.90;;;;;;494174;237;27604;-73
2023/11/17 07:12:58;;;;;;;16.40;8.85;;;5.70;99.90;;;;;;494118;241;27601;-72
2023/11/17 07:14:59;;;;;;;14.80;8.67;;;5.70;99.90;;;;;;494044;241;27512;-72
2023/11/17 07:17:04;;;;;;;12.65;7.87;;;5.70;99.90;;;;;;494039;241;28798;-72
2023/11/17 07:19:01;;;;;;;16.40;9.90;;;5.70;99.90;;;;;;493720;241;27923;-72
2023/11/17 07:21:02;;;;;;;13.60;8.00;;;5.80;99.90;;;;;;494072;241;27986;-72
2023/11/17 07:23:03;;;;;;;11.95;8.00;;;5.80;99.90;;;;;;494152;241;27474;-72
2023/11/17 07:25:05;;;;;;;13.45;9.02;;;5.80;99.90;;;;;;494171;241;27518;-73
2023/11/17 07:27:07;;;;;;;12.27;8.85;;;5.80;99.90;;;;;;494107;241;27922;-73
2023/11/17 07:29:07;;;;;;;14.05;9.27;;;5.80;99.90;;;;;;493951;241;27577;-72
2023/11/17 07:31:10;;;;;;;13.05;9.20;;;5.80;99.90;;;;;;494052;241;28097;-72
2023/11/17 07:33:10;;;;;;;16.02;9.40;;;5.80;99.90;;;;;;493948;241;27473;-72
2023/11/17 07:35:14;;;;;;;13.88;9.70;;;5.80;99.90;;;;;;493951;241;27536;-72
2023/11/17 07:37:15;;;;;;;18.52;9.65;;;5.90;99.90;;;;;;494045;241;27929;-73
2023/11/17 07:39:23;;;;;;;20.48;10.05;;;5.80;99.90;;;;;;494056;241;27983;-72
2023/11/17 07:41:18;;;;;;;13.45;9.57;;;5.90;99.90;;;;;;493604;241;27513;-72
2023/11/17 07:43:19;;;;;;;15.52;10.85;;;5.90;99.90;;;;;;494132;241;27509;-72
2023/11/17 07:45:21;;;;;;;19.45;11.05;;;5.90;99.90;;;;;;494018;241;27849;-73
2023/11/17 07:47:23;;;;;;;15.90;10.88;;;5.90;99.90;;;;;;493979;241;27981;-73
2023/11/17 07:49:25;;;;;;;22.05;11.38;;;6.00;99.90;;;;;;493954;241;27983;-72
2023/11/17 07:51:25;;;;;;;18.87;11.55;;;6.00;99.90;;;;;;493855;241;27554;-72
2023/11/17 07:53:25;;;;;;;18.77;11.50;;;6.00;99.90;;;;;;493939;241;27469;-72
2023/11/17 07:55:26;;;;;;;20.30;10.77;;;6.00;99.90;;;;;;494060;241;27637;-73
2023/11/17 07:57:28;;;;;;;21.52;11.90;;;6.00;99.90;;;;;;494095;241;28145;-72
2023/11/17 07:59:30;;;;;;;14.82;10.48;;;6.00;99.90;;;;;;494117;241;28041;-71
2023/11/17 08:01:30;;;;;;;12.95;10.50;;;6.10;99.90;;;;;;494037;237;27493;-72
2023/11/17 08:03:32;;;;;;;20.52;11.95;;;6.10;99.90;;;;;;494119;241;27514;-72
2023/11/17 08:05:33;;;;;;;16.62;10.70;;;6.00;99.90;;;;;;494105;241;27513;-72
2023/11/17 08:07:34;;;;;;;19.40;11.85;;;6.00;99.90;;;;;;493984;241;27915;-72
2023/11/17 08:09:37;;;;;;;18.27;11.45;;;6.10;99.90;;;;;;494000;241;28001;-73
2023/11/17 08:11:37;;;;;;;20.35;11.27;;;6.10;99.90;;;;;;494019;241;27517;-73
2023/11/17 08:13:38;;;;;;;16.20;11.60;;;6.10;99.90;;;;;;494140;241;27502;-73
2023/11/17 08:15:39;;;;;;;22.08;12.55;;;6.10;99.90;;;;;;494138;239;27505;-72
2023/11/17 08:17:42;;;;;;;17.85;11.70;;;6.10;99.90;;;;;;494086;241;28697;-72
2023/11/17 08:19:42;;;;;;;18.98;12.45;;;6.10;99.90;;;;;;494030;241;27464;-71
2023/11/17 08:21:43;;;;;;;18.10;11.52;;;6.10;99.90;;;;;;494009;241;27490;-73
2023/11/17 08:23:44;;;;;;;25.80;11.93;;;6.10;99.90;;;;;;494020;241;27482;-72
2023/11/17 08:25:45;;;;;;;18.27;12.05;;;6.20;99.90;;;;;;494019;237;27489;-72
2023/11/17 08:27:47;;;;;;;19.62;12.48;;;6.10;99.90;;;;;;494179;241;28092;-74
2023/11/17 08:29:48;;;;;;;17.83;10.90;;;6.10;99.90;;;;;;494141;241;27513;-73
2023/11/17 08:31:49;;;;;;;21.12;11.63;;;6.20;99.90;;;;;;494094;241;27608;-73
2023/11/17 08:33:51;;;;;;;18.10;11.75;;;6.10;99.90;;;;;;494103;241;27501;-72
2023/11/17 08:35:53;;;;;;;16.98;11.32;;;6.10;99.90;;;;;;494011;241;27486;-72
2023/11/17 08:37:53;;;;;;;17.12;12.10;;;6.20;99.90;;;;;;494050;241;27974;-73
2023/11/17 08:39:55;;;;;;;18.87;10.93;;;6.20;99.90;;;;;;494033;241;27561;-74
2023/11/17 08:41:56;;;;;;;22.50;12.13;;;6.20;99.90;;;;;;494011;241;27517;-72
2023/11/17 08:43:57;;;;;;;18.70;11.90;;;6.20;99.90;;;;;;493950;241;28834;-73
2023/11/17 08:45:58;;;;;;;13.40;8.85;;;6.20;99.90;;;;;;494021;241;28961;-72
2023/11/17 08:48:02;;;;;;;20.02;12.40;;;6.30;99.90;;;;;;494026;241;27981;-73
2023/11/17 08:50:01;;;;;;;18.67;10.73;;;6.30;99.90;;;;;;493780;241;27478;-72
2023/11/17 08:52:02;;;;;;;21.27;13.00;;;6.30;99.90;;;;;;493975;241;27516;-73
2023/11/17 08:54:03;;;;;;;18.40;11.17;;;6.30;99.90;;;;;;494146;241;27837;-72
2023/11/17 08:56:06;;;;;;;15.70;11.40;;;6.30;99.90;;;;;;494139;241;28817;-73
2023/11/17 08:58:06;;;;;;;19.30;10.95;;;6.30;99.90;;;;;;493914;241;28550;-73
2023/11/17 09:00:30;;;;;;;22.83;13.20;;;6.30;99.90;;;;;;494012;241;27916;-72
2023/11/17 09:02:09;;;;;;;18.83;11.35;;;6.30;99.90;;;;;;492284;241;27615;-72
2023/11/17 09:04:09;;;;;;;22.37;11.25;;;6.30;99.90;;;;;;493838;241;27519;-74
2023/11/17 09:06:11;;;;;;;21.00;12.27;;;6.30;99.90;;;;;;494051;241;27485;-72
2023/11/17 09:08:12;;;;;;;20.93;10.70;;;6.30;99.90;;;;;;494100;241;28858;-73
2023/11/17 09:10:14;;;;;;;15.33;10.27;;;6.30;99.90;;;;;;494078;241;28803;-72
2023/11/17 09:12:14;;;;;;;16.83;10.63;;;6.40;99.90;;;;;;494126;241;28403;-73
2023/11/17 09:14:16;;;;;;;26.23;12.50;;;6.40;99.90;;;;;;494143;241;27738;-73
2023/11/17 09:16:17;;;;;;;15.83;11.00;;;6.40;99.90;;;;;;494105;241;27940;-72
2023/11/17 09:18:19;;;;;;;23.10;11.83;;;6.40;99.90;;;;;;494062;241;28279;-73
2023/11/17 09:20:19;;;;;;;21.35;11.80;;;6.40;99.90;;;;;;494126;238;28483;-73
2023/11/17 09:22:21;;;;;;;17.70;10.10;;;6.40;99.90;;;;;;494109;241;27481;-72
2023/11/17 09:24:22;;;;;;;17.17;10.77;;;6.40;99.90;;;;;;493987;241;29390;-73
2023/11/17 09:26:23;;;;;;;15.20;10.20;;;6.40;99.90;;;;;;494038;241;28041;-72
2023/11/17 09:28:25;;;;;;;17.47;10.70;;;6.40;99.90;;;;;;494021;241;28524;-73
2023/11/17 09:30:30;;;;;;;15.10;10.50;;;6.50;99.90;;;;;;494132;241;28944;-73
2023/11/17 09:32:27;;;;;;;18.43;10.50;;;6.50;99.90;;;;;;493684;241;27831;-72
2023/11/17 09:34:28;;;;;;;15.00;9.40;;;6.60;99.90;;;;;;494031;241;27665;-72
2023/11/17 09:36:30;;;;;;;14.25;9.55;;;6.60;99.90;;;;;;494017;241;28175;-72
2023/11/17 09:38:31;;;;;;;12.50;9.13;;;6.60;99.90;;;;;;494009;241;27577;-73
2023/11/17 09:40:33;;;;;;;16.47;10.80;;;6.70;99.90;;;;;;493945;241;28586;-73
2023/11/17 09:42:33;;;;;;;13.70;8.57;;;6.70;99.90;;;;;;493942;241;28378;-72
2023/11/17 09:44:35;;;;;;;13.80;9.20;;;6.70;99.90;;;;;;494028;241;28487;-72
2023/11/17 09:46:36;;;;;;;11.70;8.80;;;6.80;99.90;;;;;;493997;241;28883;-73
2023/11/17 09:48:38;;;;;;;12.70;9.00;;;6.80;99.90;;;;;;494108;241;27492;-73
2023/11/17 09:50:38;;;;;;;10.03;7.37;;;6.80;99.90;;;;;;494035;241;28105;-72
2023/11/17 09:52:42;;;;;;;10.50;7.83;;;6.90;99.90;;;;;;493966;241;27829;-72
2023/11/17 09:54:41;;;;;;;13.03;8.60;;;6.90;99.90;;;;;;493805;241;27936;-72
2023/11/17 09:56:42;;;;;;;10.63;7.70;;;7.00;99.90;;;;;;494107;241;27617;-73
2023/11/17 09:58:44;;;;;;;10.63;7.40;;;7.10;99.90;;;;;;494073;241;27585;-72
2023/11/17 10:00:45;;;;;;;12.53;8.30;;;7.00;99.90;;;;;;494042;241;28481;-73
2023/11/17 10:02:47;;;;;;;9.77;7.70;;;7.10;99.90;;;;;;494039;241;28148;-72
2023/11/17 10:04:48;;;;;;;10.80;7.57;;;7.10;99.90;;;;;;493985;241;28452;-72
2023/11/17 10:06:50;;;;;;;9.73;7.10;;;7.10;99.90;;;;;;494115;241;28579;-73
2023/11/17 10:08:50;;;;;;;8.87;7.17;;;7.00;99.90;;;;;;494004;237;28494;-72
2023/11/17 10:10:51;;;;;;;10.30;7.77;;;6.90;99.90;;;;;;494024;241;27863;-72
2023/11/17 10:12:54;;;;;;;13.23;7.80;;;6.90;99.90;;;;;;494057;241;28657;-72
2023/11/17 10:14:53;;;;;;;10.23;6.35;;;6.90;99.90;;;;;;494002;241;28327;-72
2023/11/17 10:16:55;;;;;;;9.98;6.65;;;6.80;99.90;;;;;;494094;241;27516;-72
2023/11/17 10:18:57;;;;;;;7.37;6.37;;;6.80;99.90;;;;;;494010;241;27557;-73
2023/11/17 10:21:01;;;;;;;9.80;8.02;;;6.80;99.90;;;;;;493946;241;27524;-72
2023/11/17 10:23:02;;;;;;;12.87;8.00;;;6.80;99.90;;;;;;494090;241;27934;-72
2023/11/17 10:25:03;;;;;;;10.50;7.60;;;6.80;99.90;;;;;;494131;241;28092;-73
2023/11/17 10:27:06;;;;;;;10.63;7.40;;;6.80;99.90;;;;;;494126;241;28929;-72
2023/11/17 10:29:05;;;;;;;10.77;6.90;;;6.70;99.90;;;;;;493944;241;27519;-72
2023/11/17 10:31:07;;;;;;;7.85;5.87;;;6.80;99.90;;;;;;494101;241;27520;-73
2023/11/17 10:33:08;;;;;;;7.67;6.20;;;6.90;99.90;;;;;;494031;241;27560;-72